map of KOMN home
KOMN - Airport
Location
City:  Ormond Beach, Florida, United States
Name:Ormond Beach Municipal Airport
ICAO:KOMN
FAA LID:OMN

Details
Type:Airport (Airfield)
Use:Public/Civil
Latitude:2918'04"N (29.301139)
Longitude:8106'50"W (-81.113805)
Datum:WGS 1984
Elevation:27 ft (8 m)
Variation:6.70W (WMM2015v2 magnetic declination)
-0.06 annual change
Runways:2
Longest:4005 × 75 ft (1221 × 23 m), paved

Time
Time Zone:UTC-5 (DST-4)
Local Time:

Weather
METAR:KOMN 041350Z 34006KT 10SM OVC009 14/13 A3010

Related Locations
Nearby:
Farthest:USL: 11531 mi / 18557 km
Useless Loop, WA, AU

Find:

   beyond  
but within

Other Information
Maps:
NOTAMs:
Links:
Sources:

  
  • flag of United States
  • flag of Florida
  

Airport Diagram

Airport diagram for KOMN

Airport diagram PDF from FAA

Sectional Chart

Flight Planning
at skyvector.com

Satellite Image

Google Maps Satellite view

 

Copyright © 2004-2019 Karl L. Swartz. All rights reserved.
The Great Circle Mapper name and logo are trademarks of the Great Circle Mapper.
All other trademarks mentioned herein belong to their respective owners.
Please see credits for attibutions and further copyright information.

  Follow gcmap on Facebook Follow gcmap on Twitter GCmap on LinkedIn

hCard Microformat

Geo Microformat